APG320 RPLL-RPVA
Flight info
| Callsign | APG320 |
|---|---|
| Flight time | N/A |
| Altitude | 33000 |
| Route | IPATA2R IPATA B462 ARREX ARREX2R |
| Aircraft | A320/M-SDE3FGHIRWY/LB1 |
Departure
| Time | 2026-05-01 14:54 |
|---|---|
| Airport | Ninoy Aquino International Airport (RPLL) |
Arrival
| Time | N/A |
|---|---|
| Airport | Daniel Z. Romualdez Airport (RPVA) |
| Time | Latitude | Longitude | Altitude | Speed | Heading |
|---|---|---|---|---|---|
| 2026-05-01 14:28 | 14.50844 | 121.01305 | 69 ft | 0 kts | 330° |
| 2026-05-01 14:42 | 14.50842 | 121.01307 | 69 ft | 4 kts | 330° |
| 2026-05-01 14:43 | 14.50818 | 121.01320 | 64 ft | 4 kts | 329° |
| 2026-05-01 14:43 | 14.50796 | 121.01335 | 63 ft | 4 kts | 323° |
| 2026-05-01 14:43 | 14.50781 | 121.01348 | 59 ft | 2 kts | 293° |
| 2026-05-01 14:43 | 14.50779 | 121.01364 | 63 ft | 2 kts | 249° |
| 2026-05-01 14:44 | 14.50784 | 121.01375 | 61 ft | 2 kts | 242° |
| 2026-05-01 14:44 | 14.50789 | 121.01385 | 59 ft | 0 kts | 240° |
| 2026-05-01 14:47 | 14.50781 | 121.01371 | 60 ft | 6 kts | 240° |
| 2026-05-01 14:47 | 14.50747 | 121.01321 | 64 ft | 8 kts | 218° |
| 2026-05-01 14:48 | 14.50636 | 121.01261 | 69 ft | 18 kts | 240° |
| 2026-05-01 14:48 | 14.50570 | 121.01145 | 60 ft | 19 kts | 242° |
| 2026-05-01 14:48 | 14.50453 | 121.00932 | 65 ft | 15 kts | 240° |
| 2026-05-01 14:49 | 14.50343 | 121.00731 | 66 ft | 24 kts | 240° |
| 2026-05-01 14:49 | 14.50132 | 121.00354 | 66 ft | 28 kts | 240° |
| 2026-05-01 14:50 | 14.50001 | 121.00119 | 64 ft | 28 kts | 240° |
| 2026-05-01 14:50 | 14.49855 | 120.99977 | 69 ft | 5 kts | 150° |
| 2026-05-01 14:51 | 14.49827 | 120.99993 | 66 ft | 4 kts | 150° |
| 2026-05-01 14:51 | 14.49803 | 121.00033 | 62 ft | 9 kts | 75° |
| 2026-05-01 14:52 | 14.49814 | 121.00060 | 69 ft | 0 kts | 62° |
| 2026-05-01 14:53 | 14.49881 | 121.00187 | 68 ft | 54 kts | 61° |
| 2026-05-01 14:54 | 14.50185 | 121.00732 | 68 ft | 118 kts | 60° |
| 2026-05-01 14:54 | 14.50660 | 121.01612 | 67 ft | 166 kts | 64° |
| 2026-05-01 14:54 | 14.51216 | 121.02664 | 642 ft | 166 kts | 63° |
| 2026-05-01 14:54 | 14.51806 | 121.03690 | 1327 ft | 166 kts | 60° |
| 2026-05-01 14:55 | 14.52401 | 121.04731 | 1862 ft | 176 kts | 61° |
| 2026-05-01 14:55 | 14.53053 | 121.05890 | 2120 ft | 198 kts | 61° |
| 2026-05-01 14:55 | 14.53797 | 121.07193 | 2376 ft | 222 kts | 61° |
| 2026-05-01 14:55 | 14.54622 | 121.08642 | 2730 ft | 244 kts | 61° |
| 2026-05-01 14:56 | 14.55493 | 121.10176 | 3426 ft | 251 kts | 62° |
| 2026-05-01 14:56 | 14.56030 | 121.11893 | 4161 ft | 254 kts | 88° |
| 2026-05-01 14:56 | 14.55689 | 121.13683 | 4873 ft | 260 kts | 116° |
| 2026-05-01 14:56 | 14.54582 | 121.15153 | 5564 ft | 267 kts | 134° |
| 2026-05-01 14:57 | 14.53207 | 121.16465 | 6328 ft | 271 kts | 136° |
| 2026-05-01 14:57 | 14.50346 | 121.19072 | 7766 ft | 278 kts | 137° |
| 2026-05-01 14:57 | 14.48878 | 121.20394 | 8470 ft | 282 kts | 137° |
| 2026-05-01 14:58 | 14.47379 | 121.21737 | 8878 ft | 287 kts | 137° |
| 2026-05-01 14:58 | 14.45876 | 121.23085 | 8978 ft | 286 kts | 136° |
| 2026-05-01 14:58 | 14.44410 | 121.24472 | 9004 ft | 286 kts | 135° |
| 2026-05-01 14:58 | 14.42968 | 121.25888 | 9006 ft | 286 kts | 134° |
| 2026-05-01 14:59 | 14.41539 | 121.27312 | 9003 ft | 286 kts | 134° |
| 2026-05-01 14:59 | 14.40106 | 121.28743 | 9006 ft | 286 kts | 134° |
| 2026-05-01 14:59 | 14.38674 | 121.30170 | 8999 ft | 286 kts | 134° |
| 2026-05-01 14:59 | 14.37724 | 121.31113 | 9014 ft | 287 kts | 134° |
| 2026-05-01 15:00 | 14.34310 | 121.34486 | 10283 ft | 305 kts | 134° |
| 2026-05-01 15:00 | 14.32718 | 121.36056 | 10437 ft | 328 kts | 134° |
| 2026-05-01 15:00 | 14.31036 | 121.37715 | 10830 ft | 339 kts | 134° |
| 2026-05-01 15:01 | 14.29320 | 121.39407 | 11413 ft | 343 kts | 134° |
| 2026-05-01 15:01 | 14.27585 | 121.41114 | 12041 ft | 346 kts | 134° |
| 2026-05-01 15:01 | 14.25833 | 121.42834 | 12687 ft | 349 kts | 134° |
| 2026-05-01 15:01 | 14.24068 | 121.44564 | 13317 ft | 351 kts | 134° |
| 2026-05-01 15:02 | 14.22294 | 121.46306 | 13896 ft | 354 kts | 134° |
| 2026-05-01 15:02 | 14.21688 | 121.46901 | 14078 ft | 355 kts | 134° |
| 2026-05-01 15:02 | 14.18692 | 121.49844 | 14879 ft | 360 kts | 134° |
| 2026-05-01 15:02 | 14.16874 | 121.51633 | 15410 ft | 363 kts | 134° |
| 2026-05-01 15:03 | 14.15047 | 121.53431 | 15911 ft | 365 kts | 134° |
| 2026-05-01 15:03 | 14.13224 | 121.55224 | 16416 ft | 368 kts | 134° |
| 2026-05-01 15:03 | 14.11371 | 121.57045 | 16925 ft | 370 kts | 134° |
| 2026-05-01 15:03 | 14.09501 | 121.58883 | 17448 ft | 373 kts | 135° |
| 2026-05-01 15:04 | 14.07618 | 121.60731 | 17931 ft | 376 kts | 135° |
| 2026-05-01 15:04 | 14.05717 | 121.62597 | 18398 ft | 379 kts | 135° |
| 2026-05-01 15:04 | 14.03801 | 121.64476 | 18804 ft | 382 kts | 135° |
| 2026-05-01 15:04 | 14.01870 | 121.66368 | 19209 ft | 385 kts | 135° |
| 2026-05-01 15:05 | 13.99925 | 121.68273 | 19635 ft | 388 kts | 135° |
| 2026-05-01 15:05 | 13.97963 | 121.70195 | 20043 ft | 391 kts | 135° |
| 2026-05-01 15:05 | 13.95984 | 121.72134 | 20462 ft | 394 kts | 135° |
| 2026-05-01 15:05 | 13.93996 | 121.74082 | 20870 ft | 397 kts | 135° |
| 2026-05-01 15:06 | 13.91983 | 121.76052 | 21265 ft | 400 kts | 136° |
| 2026-05-01 15:06 | 13.90646 | 121.77359 | 21529 ft | 402 kts | 136° |
| 2026-05-01 15:06 | 13.87913 | 121.80028 | 22046 ft | 407 kts | 136° |
| 2026-05-01 15:06 | 13.85954 | 121.82095 | 22414 ft | 411 kts | 130° |
| 2026-05-01 15:07 | 13.84111 | 121.84362 | 22786 ft | 414 kts | 129° |
| 2026-05-01 15:07 | 13.82259 | 121.86642 | 23145 ft | 417 kts | 130° |
| 2026-05-01 15:07 | 13.80388 | 121.88943 | 23493 ft | 421 kts | 130° |
| 2026-05-01 15:07 | 13.78501 | 121.91255 | 23790 ft | 424 kts | 130° |
| 2026-05-01 15:08 | 13.76599 | 121.93583 | 24102 ft | 426 kts | 130° |
| 2026-05-01 15:08 | 13.74689 | 121.95925 | 24408 ft | 428 kts | 130° |
| 2026-05-01 15:08 | 13.72772 | 121.98278 | 24717 ft | 430 kts | 130° |
| 2026-05-01 15:08 | 13.71492 | 121.99846 | 24919 ft | 431 kts | 130° |
| 2026-05-01 15:09 | 13.69564 | 122.02205 | 25225 ft | 433 kts | 130° |
| 2026-05-01 15:09 | 13.67615 | 122.04585 | 25530 ft | 435 kts | 130° |
| 2026-05-01 15:09 | 13.65661 | 122.06967 | 25824 ft | 437 kts | 130° |
| 2026-05-01 15:09 | 13.63064 | 122.10141 | 26210 ft | 439 kts | 130° |
| 2026-05-01 15:10 | 13.61738 | 122.11763 | 26398 ft | 440 kts | 131° |
| 2026-05-01 15:10 | 13.57810 | 122.16573 | 26955 ft | 443 kts | 131° |
| 2026-05-01 15:10 | 13.55825 | 122.19005 | 27238 ft | 445 kts | 130° |
| 2026-05-01 15:11 | 13.53830 | 122.21444 | 27501 ft | 447 kts | 131° |
| 2026-05-01 15:11 | 13.49812 | 122.26339 | 28030 ft | 450 kts | 131° |
| 2026-05-01 15:11 | 13.47789 | 122.28802 | 28293 ft | 451 kts | 131° |
| 2026-05-01 15:12 | 13.45766 | 122.31270 | 28553 ft | 453 kts | 131° |
| 2026-05-01 15:12 | 13.41697 | 122.36234 | 29065 ft | 455 kts | 131° |
| 2026-05-01 15:12 | 13.39655 | 122.38724 | 29315 ft | 457 kts | 131° |
| 2026-05-01 15:13 | 13.33483 | 122.46244 | 30007 ft | 461 kts | 131° |
| 2026-05-01 15:14 | 13.29338 | 122.51294 | 30351 ft | 464 kts | 131° |
| 2026-05-01 15:14 | 13.27251 | 122.53832 | 30510 ft | 466 kts | 131° |
| 2026-05-01 15:14 | 13.23054 | 122.58933 | 30841 ft | 469 kts | 131° |
| 2026-05-01 15:15 | 13.18876 | 122.64008 | 31284 ft | 469 kts | 131° |
| 2026-05-01 15:15 | 13.14670 | 122.69117 | 31723 ft | 469 kts | 131° |
| 2026-05-01 15:16 | 13.10457 | 122.74231 | 32163 ft | 469 kts | 131° |
| 2026-05-01 15:16 | 13.06248 | 122.79345 | 32618 ft | 469 kts | 131° |
| 2026-05-01 15:17 | 13.02037 | 122.84451 | 32931 ft | 465 kts | 131° |
| 2026-05-01 15:18 | 12.95872 | 122.91917 | 32942 ft | 457 kts | 131° |
| 2026-05-01 15:19 | 12.87936 | 123.01526 | 32942 ft | 456 kts | 131° |
| 2026-05-01 15:19 | 12.81787 | 123.08960 | 32937 ft | 455 kts | 131° |
| 2026-05-01 15:20 | 12.75647 | 123.16377 | 32936 ft | 455 kts | 131° |
| 2026-05-01 15:21 | 12.71559 | 123.21327 | 32937 ft | 455 kts | 131° |
| 2026-05-01 15:21 | 12.67468 | 123.26264 | 32934 ft | 454 kts | 131° |
| 2026-05-01 15:22 | 12.61360 | 123.33622 | 32932 ft | 454 kts | 131° |
| 2026-05-01 15:22 | 12.57271 | 123.38552 | 32932 ft | 454 kts | 131° |
| 2026-05-01 15:23 | 12.53190 | 123.43472 | 32635 ft | 451 kts | 131° |
| 2026-05-01 15:23 | 12.51165 | 123.45910 | 32387 ft | 448 kts | 131° |
| 2026-05-01 15:23 | 12.49153 | 123.48334 | 32142 ft | 446 kts | 131° |
| 2026-05-01 15:24 | 12.47152 | 123.50740 | 31909 ft | 443 kts | 131° |
| 2026-05-01 15:24 | 12.45157 | 123.53137 | 31675 ft | 441 kts | 131° |
| 2026-05-01 15:24 | 12.43176 | 123.55518 | 31429 ft | 438 kts | 131° |
| 2026-05-01 15:24 | 12.41214 | 123.57876 | 30962 ft | 434 kts | 131° |
| 2026-05-01 15:25 | 12.39261 | 123.60225 | 30419 ft | 432 kts | 131° |
| 2026-05-01 15:25 | 12.37318 | 123.62563 | 29862 ft | 430 kts | 131° |
| 2026-05-01 15:25 | 12.35389 | 123.64897 | 29298 ft | 427 kts | 130° |
| 2026-05-01 15:25 | 12.33522 | 123.67194 | 28791 ft | 423 kts | 130° |
| 2026-05-01 15:26 | 12.31662 | 123.69504 | 28276 ft | 419 kts | 129° |
| 2026-05-01 15:26 | 12.29822 | 123.71798 | 27770 ft | 416 kts | 129° |
| 2026-05-01 15:26 | 12.27993 | 123.74076 | 27290 ft | 412 kts | 129° |
| 2026-05-01 15:26 | 12.26183 | 123.76323 | 26800 ft | 408 kts | 129° |
| 2026-05-01 15:27 | 12.24379 | 123.78552 | 26335 ft | 405 kts | 129° |
| 2026-05-01 15:27 | 12.22591 | 123.80755 | 25874 ft | 401 kts | 129° |
| 2026-05-01 15:27 | 12.20810 | 123.82945 | 25421 ft | 399 kts | 129° |
| 2026-05-01 15:28 | 12.17287 | 123.87275 | 24522 ft | 394 kts | 129° |
| 2026-05-01 15:28 | 12.15538 | 123.89429 | 24079 ft | 393 kts | 129° |
| 2026-05-01 15:28 | 12.13800 | 123.91573 | 23619 ft | 391 kts | 128° |
| 2026-05-01 15:29 | 12.10358 | 123.95821 | 22637 ft | 387 kts | 128° |
| 2026-05-01 15:29 | 12.08642 | 123.97934 | 22175 ft | 384 kts | 128° |
| 2026-05-01 15:29 | 12.05272 | 124.02084 | 21255 ft | 380 kts | 128° |
| 2026-05-01 15:30 | 12.01922 | 124.06212 | 20326 ft | 376 kts | 128° |
| 2026-05-01 15:31 | 11.95305 | 124.14360 | 18494 ft | 370 kts | 128° |
| 2026-05-01 15:31 | 11.92027 | 124.18387 | 17548 ft | 366 kts | 128° |
| 2026-05-01 15:32 | 11.88799 | 124.22349 | 16671 ft | 360 kts | 128° |
| 2026-05-01 15:32 | 11.85633 | 124.26235 | 15824 ft | 355 kts | 128° |
| 2026-05-01 15:33 | 11.81025 | 124.31885 | 15024 ft | 336 kts | 128° |
| 2026-05-01 15:34 | 11.76609 | 124.37311 | 14223 ft | 328 kts | 128° |